Time;durP1;ratioP1;P1;durP2;ratioP2;P2;SDS_P1;SDS_P2;PMS_P1;PMS_P2;Temp;Humidity;BMP_temperature;BMP_pressure;BME280_temperature;BME280_humidity;BME280_pressure;Samples;Min_cycle;Max_cycle;Signal;HPM_P1;HPM_P2
2022/01/23 00:00:55;;;;;;;48.08;15.90;;;;;;;-4.91;100.00;99754.47;5005823;28;20074;-65
2022/01/23 00:03:22;;;;;;;65.85;19.58;;;;;;;-4.97;100.00;99759.94;5005724;28;20038;-64
2022/01/23 00:05:49;;;;;;;60.15;19.25;;;;;;;-4.83;100.00;99772.66;4957532;28;20050;-64
2022/01/23 00:08:20;;;;;;;55.72;18.90;;;;;;;-4.89;100.00;99768.47;5005659;28;20046;-65
2022/01/23 00:10:47;;;;;;;52.80;16.13;;;;;;;-4.92;100.00;99774.72;5004925;28;20096;-63
2022/01/23 00:13:32;;;;;;;53.42;17.38;;;;;;;-4.96;100.00;99766.97;5005232;28;20046;-63
2022/01/23 00:18:42;;;;;;;49.80;15.60;;;;;;;-4.97;100.00;99776.66;4988755;28;20038;-64
2022/01/23 00:21:08;;;;;;;46.38;15.50;;;;;;;-4.98;100.00;99774.06;4988818;28;20149;-65
2022/01/23 00:31:33;;;;;;;55.65;18.17;;;;;;;-5.05;100.00;99783.06;4992138;28;20110;-64
2022/01/23 00:33:59;;;;;;;55.33;17.92;;;;;;;-5.00;100.00;99807.53;5008192;28;20054;-63
2022/01/23 00:36:27;;;;;;;61.88;18.35;;;;;;;-4.99;100.00;99796.06;4992150;28;20517;-64
2022/01/23 00:38:53;;;;;;;51.45;18.25;;;;;;;-4.94;100.00;99802.03;5008725;28;20046;-67
2022/01/23 00:41:19;;;;;;;45.17;15.18;;;;;;;-5.00;100.00;99807.53;4992276;28;20077;-63
2022/01/23 00:43:48;;;;;;;65.97;19.98;;;;;;;-5.04;100.00;99805.91;5008172;28;20081;-65
2022/01/23 00:51:32;;;;;;;71.60;20.33;;;;;;;-5.03;100.00;99821.66;4993433;28;20480;-64
2022/01/23 00:54:00;;;;;;;60.80;19.40;;;;;;;-4.96;100.00;99824.97;4975829;28;20042;-63
2022/01/23 00:56:26;;;;;;;68.57;19.30;;;;;;;-5.05;100.00;99810.28;4991766;28;20099;-64
2022/01/23 00:58:52;;;;;;;58.13;19.67;;;;;;;-5.04;100.00;99816.44;4991611;28;20039;-64
2022/01/23 01:01:19;;;;;;;58.17;19.83;;;;;;;-4.93;100.00;99845.94;4991220;28;20043;-65
2022/01/23 01:03:46;;;;;;;69.45;20.95;;;;;;;-4.92;100.00;99842.41;5007662;28;20503;-64
2022/01/23 01:06:16;;;;;;;57.80;19.63;;;;;;;-4.94;100.00;99845.06;4991870;28;20076;-63
2022/01/23 01:08:44;;;;;;;64.00;20.20;;;;;;;-4.92;100.00;99842.41;5008219;28;20050;-64
2022/01/23 01:11:47;;;;;;;57.63;19.38;;;;;;;-5.11;100.00;99821.91;4975461;28;20042;-65
2022/01/23 01:30:35;;;;;;;62.40;20.98;;;;;;;-5.07;100.00;99849.03;4991176;28;20124;-64
2022/01/23 01:36:17;;;;;;;58.17;17.88;;;;;;;-4.97;100.00;99865.38;4940344;28;20086;-63
2022/01/23 01:38:42;;;;;;;58.58;17.98;;;;;;;-4.96;100.00;99869.78;4990783;28;20104;-63
2022/01/23 01:41:08;;;;;;;50.47;16.60;;;;;;;-5.17;100.00;99843.16;4975137;28;20140;-63
2022/01/23 01:43:34;;;;;;;51.20;15.73;;;;;;;-4.99;100.00;99877.78;5007174;28;20078;-63
2022/01/23 01:46:00;;;;;;;54.90;17.38;;;;;;;-5.00;100.00;99886.59;4974860;28;20459;-64
2022/01/23 01:48:39;;;;;;;49.53;16.08;;;;;;;-4.97;100.00;99886.47;4974446;28;20417;-64
2022/01/23 01:51:14;;;;;;;55.28;16.52;;;;;;;-4.97;100.00;99887.38;4990534;28;20064;-64
2022/01/23 01:53:47;;;;;;;51.78;16.42;;;;;;;-4.99;100.00;99883.03;4975509;28;20068;-64
2022/01/23 01:56:13;;;;;;;50.33;18.23;;;;;;;-5.02;100.00;99893.69;4974737;28;20540;-64
2022/01/23 02:09:41;;;;;;;46.75;16.10;;;;;;;-5.05;100.00;99914.84;4987612;28;20065;-63
2022/01/23 02:23:19;;;;;;;38.75;14.48;;;;;;;-5.15;100.00;99951.19;5007145;28;20051;-64
2022/01/23 02:50:56;;;;;;;45.60;16.95;;;;;;;-5.27;100.00;99972.59;4937168;28;20074;-63
2022/01/23 02:56:18;;;;;;;43.17;15.05;;;;;;;-5.13;100.00;99984.47;4960973;28;20081;-64
2022/01/23 02:58:59;;;;;;;37.70;14.40;;;;;;;-5.13;100.00;99997.66;4975338;28;20042;-65
2022/01/23 03:01:29;;;;;;;39.67;14.30;;;;;;;-5.16;100.00;99994.22;4991282;28;20050;-63
2022/01/23 03:04:36;;;;;;;42.15;14.05;;;;;;;-5.12;100.00;99999.41;4965499;28;20046;-62
2022/01/23 03:10:08;;;;;;;41.17;13.60;;;;;;;-5.06;100.00;100008.03;4989218;28;20153;-63
2022/01/23 03:16:01;;;;;;;35.88;12.88;;;;;;;-5.20;100.00;100017.19;4989428;28;20042;-63
2022/01/23 03:26:36;;;;;;;39.47;15.38;;;;;;;-5.05;100.00;100049.28;4992171;28;20145;-65
2022/01/23 03:32:00;;;;;;;40.85;15.52;;;;;;;-5.13;100.00;100058.25;5005503;28;20090;-64
2022/01/23 03:34:27;;;;;;;47.40;15.57;;;;;;;-5.16;100.00;100060.97;4989142;28;20042;-63
2022/01/23 03:36:54;;;;;;;43.63;14.13;;;;;;;-5.19;100.00;100053.19;4973284;28;20077;-63
2022/01/23 03:39:20;;;;;;;38.95;16.30;;;;;;;-5.17;100.00;100066.31;4989262;28;20098;-63
2022/01/23 03:41:46;;;;;;;39.17;14.65;;;;;;;-5.15;100.00;100061.88;5005775;28;20053;-64
2022/01/23 03:44:15;;;;;;;41.72;15.00;;;;;;;-5.14;100.00;100069.72;4989825;28;20046;-64
2022/01/23 03:47:02;;;;;;;40.15;14.35;;;;;;;-5.11;100.00;100081.97;5005642;28;20065;-62
2022/01/23 03:49:31;;;;;;;36.72;14.43;;;;;;;-5.12;100.00;100083.72;4973168;28;20145;-64
2022/01/23 03:52:11;;;;;;;40.28;14.38;;;;;;;-5.21;100.00;100081.34;4974726;28;20073;-64
2022/01/23 03:54:41;;;;;;;39.03;14.73;;;;;;;-5.19;100.00;100084.81;4973661;28;20069;-64
2022/01/23 03:57:08;;;;;;;46.80;15.73;;;;;;;-5.17;100.00;100090.88;4957385;28;20046;-65
2022/01/23 03:59:35;;;;;;;46.08;16.80;;;;;;;-5.20;100.00;100100.66;4993507;28;20096;-64
2022/01/23 04:02:04;;;;;;;40.78;15.73;;;;;;;-5.15;100.00;100110.16;5009587;28;20054;-64
2022/01/23 04:04:40;;;;;;;44.10;15.13;;;;;;;-5.14;100.00;100105.75;4993712;28;20141;-63
2022/01/23 04:07:13;;;;;;;42.85;16.27;;;;;;;-5.10;100.00;100113.53;4977138;28;20096;-67
2022/01/23 04:09:41;;;;;;;43.97;14.57;;;;;;;-5.06;100.00;100121.34;5010106;28;20106;-65
2022/01/23 04:12:10;;;;;;;34.67;15.23;;;;;;;-5.24;100.00;100110.41;4976712;28;20137;-64
2022/01/23 04:14:42;;;;;;;41.70;16.63;;;;;;;-5.14;100.00;100122.44;4977352;28;20138;-63
2022/01/23 04:34:16;;;;;;;41.00;16.45;;;;;;;-5.34;100.00;100136.16;4993551;28;20108;-65
2022/01/23 05:01:29;;;;;;;38.15;14.63;;;;;;;-5.28;100.00;100198.34;4992009;28;20044;-66
2022/01/23 05:04:20;;;;;;;35.33;13.77;;;;;;;-5.21;100.00;100209.59;4992357;28;20085;-65
2022/01/23 05:07:14;;;;;;;37.35;13.70;;;;;;;-5.29;100.00;100220.34;4984042;28;20054;-64
2022/01/23 05:10:02;;;;;;;34.03;13.25;;;;;;;-5.24;100.00;100228.97;5007908;28;20042;-65
2022/01/23 05:12:46;;;;;;;35.22;13.25;;;;;;;-5.36;100.00;100210.84;4992343;28;20086;-65
2022/01/23 05:15:12;;;;;;;36.08;13.05;;;;;;;-5.25;100.00;100235.16;4959537;28;20069;-64
2022/01/23 05:17:38;;;;;;;35.45;13.10;;;;;;;-5.19;100.00;100239.41;5008653;28;20057;-65
2022/01/23 05:20:05;;;;;;;36.22;13.60;;;;;;;-5.17;100.00;100237.59;4960154;28;20449;-64
2022/01/23 05:22:43;;;;;;;34.95;14.30;;;;;;;-5.22;100.00;100244.78;5008676;28;20054;-64
2022/01/23 05:27:35;;;;;;;43.20;15.73;;;;;;;-5.22;100.00;100256.16;4992826;28;20138;-64
2022/01/23 05:30:01;;;;;;;38.45;15.43;;;;;;;-5.26;100.00;100249.25;4992626;28;20132;-65
2022/01/23 05:32:35;;;;;;;39.70;14.38;;;;;;;-5.26;100.00;100262.44;5008452;28;20050;-66
2022/01/23 05:35:04;;;;;;;42.83;15.52;;;;;;;-5.16;100.00;100268.31;4975934;28;20055;-66
2022/01/23 05:37:31;;;;;;;37.45;14.48;;;;;;;-5.18;100.00;100270.13;5008342;28;20042;-66
2022/01/23 05:39:57;;;;;;;45.28;16.02;;;;;;;-5.20;100.00;100283.34;4991866;28;20470;-65
2022/01/23 05:42:22;;;;;;;39.38;15.30;;;;;;;-5.20;100.00;100275.44;4992010;28;20116;-65
2022/01/23 05:44:48;;;;;;;39.85;14.52;;;;;;;-5.21;100.00;100286.88;4991930;28;20094;-65
2022/01/23 05:47:14;;;;;;;37.78;15.35;;;;;;;-5.21;100.00;100293.94;4975646;28;20153;-65
2022/01/23 05:50:04;;;;;;;36.60;14.80;;;;;;;-5.25;100.00;100298.41;4990784;28;20053;-64
2022/01/23 05:52:40;;;;;;;39.95;12.82;;;;;;;-5.22;100.00;100293.06;4991250;28;20050;-65
2022/01/23 05:55:27;;;;;;;36.22;14.57;;;;;;;-5.14;100.00;100306.91;4988449;28;20537;-65
2022/01/23 05:58:12;;;;;;;36.38;14.52;;;;;;;-5.15;100.00;100299.94;4993372;28;20042;-65
2022/01/23 06:00:49;;;;;;;;;;;;;;;-5.14;100.00;100306.91;4989685;28;20065;-65
2022/01/23 06:03:18;;;;;;;40.90;14.80;;;;;;;-5.15;100.00;100310.47;4990041;28;19928;-65
2022/01/23 06:05:49;;;;;;;41.88;14.82;;;;;;;-5.12;100.00;100309.50;5007134;28;20485;-64
2022/01/23 06:08:21;;;;;;;41.70;14.57;;;;;;;-5.24;100.00;100294.84;4974579;28;20531;-64
2022/01/23 06:10:54;;;;;;;44.00;14.95;;;;;;;-5.15;100.00;100315.75;5006774;28;20045;-65
2022/01/23 06:13:28;;;;;;;37.45;14.38;;;;;;;-5.09;100.00;100330.53;5006275;28;20054;-65
2022/01/23 06:15:56;;;;;;;38.05;14.40;;;;;;;-5.11;100.00;100327.94;5007099;28;20046;-65
2022/01/23 06:18:22;;;;;;;42.05;13.45;;;;;;;-5.11;100.00;100333.22;4974862;28;20046;-65
2022/01/23 06:21:18;;;;;;;34.55;12.63;;;;;;;-5.03;99.67;100342.72;4991393;28;20058;-65
2022/01/23 06:24:00;;;;;;;42.60;14.27;;;;;;;-5.02;99.04;100357.59;4990815;28;20050;-64
2022/01/23 06:26:44;;;;;;;36.00;12.45;;;;;;;-5.06;99.32;100371.78;4974575;28;20046;-64
2022/01/23 06:29:11;;;;;;;38.20;12.85;;;;;;;-5.11;99.05;100364.84;5006704;28;20043;-64
2022/01/23 06:31:38;;;;;;;30.77;13.43;;;;;;;-5.00;99.38;100366.38;5006846;28;20062;-65
2022/01/23 06:34:06;;;;;;;34.05;12.82;;;;;;;-5.00;98.85;100374.28;5007331;28;20046;-65
2022/01/23 06:36:33;;;;;;;42.25;13.60;;;;;;;-5.01;99.32;100370.78;5006617;28;20057;-65
2022/01/23 06:39:00;;;;;;;32.20;12.23;;;;;;;-5.09;99.43;100370.91;4974459;28;20061;-65
2022/01/23 06:41:26;;;;;;;34.10;12.85;;;;;;;-4.98;99.31;100383.00;4979560;28;20128;-67
2022/01/23 06:44:05;;;;;;;32.25;11.13;;;;;;;-5.21;98.48;100350.13;4984755;28;20042;-67
2022/01/23 06:46:39;;;;;;;36.65;14.27;;;;;;;-5.01;98.76;100383.97;4979820;28;20038;-66
2022/01/23 06:49:07;;;;;;;37.95;14.13;;;;;;;-5.00;98.82;100387.47;4969364;28;20046;-64
2022/01/23 06:51:37;;;;;;;33.63;13.60;;;;;;;-5.00;98.43;100387.47;5007686;28;20054;-64
2022/01/23 06:54:06;;;;;;;34.38;13.90;;;;;;;-5.01;98.38;100396.25;4980855;28;20575;-65
2022/01/23 06:56:32;;;;;;;38.10;14.15;;;;;;;-5.01;97.93;100401.50;4984812;28;20050;-65
2022/01/23 06:58:58;;;;;;;37.97;14.23;;;;;;;-4.96;98.07;100415.47;4978229;28;20128;-64
2022/01/23 07:01:24;;;;;;;36.80;12.82;;;;;;;-4.92;98.44;100417.13;4973806;28;20045;-67
2022/01/23 07:04:00;;;;;;;36.60;13.95;;;;;;;-4.92;98.13;100425.06;4967910;28;20054;-68
2022/01/23 07:06:46;;;;;;;37.90;13.57;;;;;;;-4.93;97.67;100418.06;4966058;28;20046;-66
2022/01/23 07:09:21;;;;;;;40.17;13.43;;;;;;;-4.93;98.34;100415.41;4954062;28;20042;-65
2022/01/23 07:12:13;;;;;;;37.22;12.75;;;;;;;-4.92;96.96;100423.28;4987583;28;20124;-65
2022/01/23 07:14:58;;;;;;;33.22;13.77;;;;;;;-4.86;98.18;100443.38;4986171;28;20072;-65
2022/01/23 07:17:56;;;;;;;36.83;14.18;;;;;;;-4.91;97.91;100439.97;4971771;28;20058;-67
2022/01/23 07:20:32;;;;;;;35.67;13.40;;;;;;;-4.80;97.37;100435.31;4983008;28;20050;-66
2022/01/23 07:23:06;;;;;;;39.17;14.80;;;;;;;-4.84;97.28;100449.47;4966083;28;20491;-66
2022/01/23 07:25:32;;;;;;;36.70;14.10;;;;;;;-4.77;97.43;100453.69;4958304;28;20046;-66
2022/01/23 07:27:59;;;;;;;37.75;14.25;;;;;;;-4.78;97.01;100451.97;4962552;28;20364;-64
2022/01/23 07:30:40;;;;;;;36.55;14.25;;;;;;;-4.72;96.93;100451.81;4982282;28;20065;-63
2022/01/23 07:33:06;;;;;;;39.30;14.23;;;;;;;-4.65;96.15;100458.69;4986649;28;20047;-64
2022/01/23 07:35:33;;;;;;;33.85;14.40;;;;;;;-4.51;96.39;100465.41;4979651;28;20070;-65
2022/01/23 07:37:59;;;;;;;37.90;12.50;;;;;;;-4.61;95.66;100470.91;4993559;28;20124;-66
2022/01/23 07:40:51;;;;;;;42.50;15.98;;;;;;;-4.59;96.03;100473.50;4982701;28;20092;-65
2022/01/23 07:43:40;;;;;;;36.42;14.70;;;;;;;-4.48;95.76;100475.91;4969652;28;20052;-67
2022/01/23 07:46:24;;;;;;;39.83;14.65;;;;;;;-4.37;96.03;100473.88;4977844;28;20528;-68
2022/01/23 07:49:09;;;;;;;43.22;15.52;;;;;;;-4.33;94.65;100480.81;4988038;28;20049;-67
2022/01/23 07:52:01;;;;;;;44.13;15.50;;;;;;;-4.23;94.38;100484.97;4992173;28;20350;-67
2022/01/23 07:54:56;;;;;;;36.85;13.95;;;;;;;-4.00;93.50;100494.06;5007834;28;20596;-68
2022/01/23 07:57:38;;;;;;;40.88;14.60;;;;;;;-3.79;91.83;100496.16;4968947;28;20468;-67
2022/01/23 08:00:36;;;;;;;41.10;15.23;;;;;;;-3.94;91.50;100468.38;4965216;28;20041;-67
2022/01/23 08:03:04;;;;;;;45.00;16.85;;;;;;;-3.59;90.97;100502.69;4980871;28;20039;-67
2022/01/23 08:05:49;;;;;;;43.42;15.30;;;;;;;-3.53;90.25;100515.75;5016423;28;20049;-67
2022/01/23 08:08:28;;;;;;;42.10;14.95;;;;;;;-3.51;90.04;100519.19;4968101;28;20091;-67
2022/01/23 08:11:09;;;;;;;42.38;16.10;;;;;;;-3.46;89.22;100530.53;4977351;28;20068;-67
2022/01/23 08:13:35;;;;;;;42.97;15.68;;;;;;;-3.50;90.07;100531.53;4986555;28;20046;-67
2022/01/23 08:16:01;;;;;;;47.10;17.80;;;;;;;-3.65;90.33;100533.66;5019602;28;20086;-66
2022/01/23 08:18:26;;;;;;;42.00;15.57;;;;;;;-3.63;90.19;100534.47;4996058;28;20049;-68
2022/01/23 08:20:52;;;;;;;42.33;15.50;;;;;;;-3.77;90.93;100533.09;5011571;28;20131;-67
2022/01/23 08:23:20;;;;;;;39.08;15.00;;;;;;;-3.68;91.11;100549.59;4976001;28;20076;-68
2022/01/23 08:25:46;;;;;;;43.53;16.33;;;;;;;-3.66;90.90;100542.50;4990626;28;20081;-68
2022/01/23 08:28:12;;;;;;;41.17;13.43;;;;;;;-3.85;89.70;100554.41;5020630;28;20049;-67
2022/01/23 08:30:38;;;;;;;47.35;15.65;;;;;;;-3.72;90.14;100553.22;5015822;28;20576;-67
2022/01/23 08:33:04;;;;;;;35.22;14.27;;;;;;;-3.72;89.36;100562.91;4981440;28;20037;-67
2022/01/23 08:35:31;;;;;;;37.17;14.63;;;;;;;-3.54;88.76;100567.72;5009043;28;20061;-67
2022/01/23 08:37:57;;;;;;;39.97;15.13;;;;;;;-3.46;89.13;100570.16;5003384;28;20381;-68
2022/01/23 08:40:45;;;;;;;39.33;14.05;;;;;;;-3.33;88.43;100571.56;4981730;28;20049;-68
2022/01/23 08:43:12;;;;;;;40.80;15.15;;;;;;;-3.33;87.77;100581.28;4994830;28;20052;-68
2022/01/23 08:45:42;;;;;;;46.60;15.43;;;;;;;-3.27;87.89;100581.13;5014410;28;20042;-68
2022/01/23 08:48:08;;;;;;;35.83;14.35;;;;;;;-3.25;88.24;100588.09;4995397;28;20042;-65
2022/01/23 08:50:34;;;;;;;41.40;17.10;;;;;;;-3.22;86.72;100590.69;4985040;28;20033;-66
2022/01/23 08:53:00;;;;;;;43.10;15.82;;;;;;;-3.21;88.32;100587.13;4991950;28;20094;-65
2022/01/23 08:55:26;;;;;;;42.83;16.23;;;;;;;-2.82;87.85;100591.31;4966816;28;20049;-66
2022/01/23 08:57:52;;;;;;;43.08;14.13;;;;;;;-2.75;85.32;100601.69;5001333;28;20100;-65
2022/01/23 09:00:19;;;;;;;34.25;11.93;;;;;;;-2.82;84.03;100605.41;4994550;28;20426;-65
2022/01/23 09:02:45;;;;;;;45.88;16.13;;;;;;;-2.83;83.90;100603.69;5003345;28;20041;-66
2022/01/23 09:05:11;;;;;;;46.40;16.60;;;;;;;-2.68;85.06;100608.53;4989345;28;20042;-66
2022/01/23 09:07:37;;;;;;;39.60;15.90;;;;;;;-2.86;83.49;100603.78;4989947;28;20074;-66
2022/01/23 09:10:04;;;;;;;39.25;16.25;;;;;;;-2.62;84.01;100609.28;4975411;28;20278;-67
2022/01/23 09:13:30;;;;;;;43.10;16.35;;;;;;;-2.83;83.71;100619.56;4984808;28;20121;-66
2022/01/23 09:15:16;;;;;;;39.65;15.35;;;;;;;-2.64;84.32;100632.28;4991142;28;20807;-67
2022/01/23 09:17:42;;;;;;;43.28;16.35;;;;;;;-2.73;83.73;100625.47;4989160;28;20141;-67
2022/01/23 09:20:08;;;;;;;46.15;16.77;;;;;;;-2.72;83.36;100627.19;4990158;28;20038;-67
2022/01/23 09:22:34;;;;;;;41.08;15.77;;;;;;;-2.65;83.07;100639.34;4980064;28;20369;-67
2022/01/23 09:25:01;;;;;;;47.97;16.38;;;;;;;-2.60;83.57;100642.72;4971985;28;20065;-66
2022/01/23 09:27:28;;;;;;;46.88;18.35;;;;;;;-2.57;83.56;100636.47;4998714;28;20073;-67
2022/01/23 09:29:55;;;;;;;46.67;17.13;;;;;;;-2.67;83.65;100638.50;4972155;28;20045;-67
2022/01/23 09:32:22;;;;;;;40.25;17.55;;;;;;;-2.89;82.94;100609.13;4956487;28;20136;-67
2022/01/23 09:34:48;;;;;;;40.35;16.25;;;;;;;-2.91;83.56;100648.88;4988621;28;20153;-67
2022/01/23 09:37:16;;;;;;;44.13;16.45;;;;;;;-2.83;83.87;100646.03;4992387;28;20040;-66
2022/01/23 09:39:49;;;;;;;48.88;17.30;;;;;;;-2.57;83.89;100655.00;4986088;28;20053;-66
2022/01/23 09:42:19;;;;;;;42.15;15.98;;;;;;;-2.80;83.44;100651.22;4967146;28;20073;-67
2022/01/23 09:44:51;;;;;;;37.97;15.57;;;;;;;-2.74;83.31;100660.78;4988007;28;20050;-69
2022/01/23 09:47:22;;;;;;;40.08;14.95;;;;;;;-2.68;83.21;100656.16;4977462;28;20050;-66
2022/01/23 09:49:49;;;;;;;39.05;15.02;;;;;;;-2.70;82.46;100663.31;4970143;28;20046;-67
2022/01/23 09:52:17;;;;;;;36.25;15.30;;;;;;;-2.71;82.62;100664.19;4985291;28;20041;-70
2022/01/23 09:54:45;;;;;;;41.05;15.98;;;;;;;-2.64;83.22;100661.38;5005485;28;20073;-67
2022/01/23 09:57:12;;;;;;;39.67;14.50;;;;;;;-2.63;82.67;100673.69;4986627;28;20033;-68
2022/01/23 09:59:40;;;;;;;37.22;15.05;;;;;;;-2.66;81.97;100664.09;4996228;28;20076;-66
2022/01/23 10:02:08;;;;;;;44.58;15.55;;;;;;;-2.50;81.84;100669.81;4994173;28;20056;-64
2022/01/23 10:04:34;;;;;;;34.25;13.30;;;;;;;-2.52;81.64;100671.66;4966522;28;20034;-65
2022/01/23 10:07:03;;;;;;;41.83;15.13;;;;;;;-2.68;81.82;100682.63;4983187;28;20041;-65
2022/01/23 10:09:31;;;;;;;40.33;14.07;;;;;;;-2.75;82.52;100673.13;4992388;28;20069;-64
2022/01/23 10:11:58;;;;;;;40.50;15.80;;;;;;;-2.68;81.46;100682.63;4974624;28;20218;-67
2022/01/23 10:14:24;;;;;;;36.60;14.43;;;;;;;-2.75;82.55;100686.38;4986021;28;20406;-67
2022/01/23 10:16:50;;;;;;;39.38;15.93;;;;;;;-2.67;81.58;100688.78;4980301;28;20041;-65
2022/01/23 10:19:16;;;;;;;35.67;14.32;;;;;;;-2.60;82.02;100700.09;4959361;28;20358;-68
2022/01/23 10:21:47;;;;;;;38.97;14.90;;;;;;;-2.52;81.18;100693.69;4976665;28;20078;-65
2022/01/23 10:24:13;;;;;;;38.40;15.02;;;;;;;-2.54;81.08;100700.78;4968591;28;20554;-70
2022/01/23 10:26:48;;;;;;;41.97;15.23;;;;;;;-2.52;81.35;100693.69;4987203;28;20046;-65
2022/01/23 10:29:17;;;;;;;40.33;14.70;;;;;;;-2.61;81.95;100693.06;5004797;28;20453;-68
2022/01/23 10:32:05;;;;;;;42.47;14.88;;;;;;;-2.57;81.66;100702.66;4989708;28;20050;-66
2022/01/23 10:34:55;;;;;;;41.63;15.38;;;;;;;-2.55;81.60;100699.06;5010786;28;20045;-65
2022/01/23 10:37:32;;;;;;;36.53;14.55;;;;;;;-2.37;82.12;100686.22;5009722;28;20254;-66
2022/01/23 10:40:01;;;;;;;39.17;15.35;;;;;;;-2.58;81.24;100703.56;4994974;28;20069;-66
2022/01/23 10:48:00;;;;;;;39.55;16.08;;;;;;;-2.88;81.71;100653.22;5020468;28;20532;-65
2022/01/23 10:50:26;;;;;;;41.65;16.17;;;;;;;-2.55;83.02;100706.13;4982345;28;20088;-66
2022/01/23 10:52:53;;;;;;;39.67;15.32;;;;;;;-2.55;82.30;100711.44;5017640;28;20100;-66
2022/01/23 10:55:29;;;;;;;49.97;17.63;;;;;;;-2.50;82.53;100722.75;5015692;28;20050;-66
2022/01/23 10:58:01;;;;;;;45.08;15.82;;;;;;;-2.55;81.81;100729.97;5011822;28;20033;-66
2022/01/23 11:00:39;;;;;;;42.45;17.02;;;;;;;-2.54;82.47;100732.56;5008348;28;20045;-66
2022/01/23 11:03:19;;;;;;;45.60;17.35;;;;;;;-2.73;83.25;100718.09;5023844;28;20141;-66
2022/01/23 11:05:48;;;;;;;46.30;18.38;;;;;;;-2.57;84.00;100734.41;5021078;28;20050;-65
2022/01/23 11:08:30;;;;;;;45.55;17.58;;;;;;;-2.63;83.75;100738.13;4998553;28;20053;-65
2022/01/23 11:10:59;;;;;;;44.67;18.08;;;;;;;-2.67;83.75;100741.72;5028245;28;20056;-66
2022/01/23 11:19:24;;;;;;;43.25;16.95;;;;;;;-2.60;83.51;100755.66;4998673;28;20053;-65
2022/01/23 11:21:52;;;;;;;44.47;17.20;;;;;;;-2.74;83.24;100708.44;5002223;28;20069;-65
2022/01/23 11:24:19;;;;;;;41.50;18.05;;;;;;;-2.58;83.10;100732.69;5017932;28;20516;-67
2022/01/23 11:26:45;;;;;;;46.33;18.33;;;;;;;-2.47;83.05;100754.44;5001699;28;20038;-65
2022/01/23 11:29:13;;;;;;;45.65;17.75;;;;;;;-2.42;83.97;100757.81;4997434;28;20033;-66
2022/01/23 11:31:40;;;;;;;49.75;17.67;;;;;;;-2.61;83.45;100761.88;5000538;28;21024;-65
2022/01/23 11:34:06;;;;;;;39.33;17.27;;;;;;;-2.64;83.71;100764.59;5011693;28;20080;-65
2022/01/23 11:36:33;;;;;;;48.10;17.33;;;;;;;-2.70;83.16;100778.88;4968858;28;20049;-66
2022/01/23 11:39:07;;;;;;;44.42;18.73;;;;;;;-2.73;83.68;100786.91;4974153;28;20077;-65
2022/01/23 11:50:52;;;;;;;46.63;17.67;;;;;;;-2.79;84.40;100790.56;4988200;28;20467;-66
2022/01/23 11:56:28;;;;;;;45.58;17.70;;;;;;;-3.07;85.01;100794.78;4998305;28;20121;-66
2022/01/23 11:59:10;;;;;;;44.83;18.05;;;;;;;-3.08;85.75;100798.34;5001126;28;20042;-66
2022/01/23 12:01:39;;;;;;;45.03;17.88;;;;;;;-3.10;85.90;100797.53;4982817;28;20049;-64
2022/01/23 12:04:21;;;;;;;43.67;17.15;;;;;;;-3.08;85.40;100806.28;4978592;28;20049;-66
2022/01/23 12:07:06;;;;;;;42.50;17.83;;;;;;;-3.10;85.51;100808.09;4980743;28;20041;-65
2022/01/23 12:09:32;;;;;;;47.72;17.92;;;;;;;-3.12;86.25;100807.25;4996077;28;20041;-65
2022/01/23 12:12:08;;;;;;;46.17;18.00;;;;;;;-3.17;85.62;100815.31;4996831;28;20096;-66
2022/01/23 12:17:12;;;;;;;44.22;16.90;;;;;;;-3.27;86.14;100830.50;4994626;28;20069;-64
2022/01/23 12:19:51;;;;;;;44.85;16.98;;;;;;;-3.37;85.39;100818.41;4980862;28;20052;-65
2022/01/23 12:22:24;;;;;;;46.00;17.73;;;;;;;-3.44;86.29;100811.50;4966686;28;20053;-67
2022/01/23 12:24:52;;;;;;;48.58;19.48;;;;;;;-3.37;86.69;100834.25;4969864;28;20057;-65
2022/01/23 12:27:27;;;;;;;45.67;18.92;;;;;;;-3.35;87.15;100835.09;4993561;28;20057;-65
2022/01/23 12:30:16;;;;;;;50.03;20.65;;;;;;;-3.40;87.15;100842.25;5006489;28;20148;-65
2022/01/23 12:32:42;;;;;;;50.42;20.27;;;;;;;-3.29;87.51;100848.19;4984816;28;20140;-65
2022/01/23 12:35:10;;;;;;;56.42;20.27;;;;;;;-3.49;87.18;100840.69;5020435;28;20207;-65
2022/01/23 12:38:02;;;;;;;46.80;19.70;;;;;;;-3.54;88.42;100852.28;5020812;28;20056;-65
2022/01/23 12:40:37;;;;;;;54.00;21.15;;;;;;;-3.61;88.30;100840.09;4994434;28;20110;-65
2022/01/23 12:43:05;;;;;;;48.47;18.73;;;;;;;-3.47;88.68;100856.53;4996285;28;20041;-64
2022/01/23 12:45:45;;;;;;;48.38;19.25;;;;;;;-3.61;89.15;100851.53;5021219;28;20145;-65
2022/01/23 12:48:27;;;;;;;47.55;18.98;;;;;;;-3.46;88.75;100874.13;5000631;28;20042;-65
2022/01/23 12:50:59;;;;;;;49.17;18.90;;;;;;;-3.48;88.92;100873.28;5001399;28;20041;-66
2022/01/23 12:53:36;;;;;;;45.40;18.73;;;;;;;-3.55;88.43;100871.66;5008263;28;20068;-65
2022/01/23 12:56:05;;;;;;;;;;;;;;;-3.66;88.59;100874.53;5039455;28;20552;-66
2022/01/23 12:58:33;;;;;;;47.22;17.52;;;;;;;-3.79;89.70;100862.50;5012613;28;19923;-65
2022/01/23 13:01:01;;;;;;;46.92;20.08;;;;;;;-3.70;89.63;100873.72;4984034;28;20049;-65
2022/01/23 13:03:27;;;;;;;47.30;19.23;;;;;;;-3.70;89.25;100873.72;5004874;28;20096;-65
2022/01/23 13:05:53;;;;;;;48.13;19.75;;;;;;;-3.62;89.45;100865.63;5009256;28;20386;-65
2022/01/23 13:08:34;;;;;;;52.03;21.52;;;;;;;-3.83;89.22;100855.53;5001911;28;20045;-65
2022/01/23 13:18:48;;;;;;;49.55;20.38;;;;;;;-4.07;91.17;100883.28;5011942;28;20177;-65
2022/01/23 13:35:00;;;;;;;57.47;22.63;;;;;;;-4.29;93.33;100912.69;4973613;28;20121;-67
2022/01/23 13:37:32;;;;;;;55.28;21.90;;;;;;;-4.30;93.93;100926.81;4987493;28;20050;-66
2022/01/23 13:40:09;;;;;;;50.47;19.80;;;;;;;-4.32;93.76;100930.34;4983196;28;20121;-66
2022/01/23 13:42:55;;;;;;;56.67;20.92;;;;;;;-4.43;93.73;100918.22;4993951;28;20041;-66
2022/01/23 13:51:54;;;;;;;54.17;19.33;;;;;;;-4.23;94.38;100968.03;4980643;28;20069;-66
2022/01/23 14:00:03;;;;;;;51.47;21.25;;;;;;;-4.30;94.21;100971.69;4994642;28;20042;-70
2022/01/23 14:02:35;;;;;;;53.88;20.08;;;;;;;-4.29;93.99;100972.53;5002675;28;20038;-65
2022/01/23 14:05:17;;;;;;;61.38;22.75;;;;;;;-4.33;94.52;100977.00;4976881;28;20042;-68
2022/01/23 14:07:49;;;;;;;57.25;20.90;;;;;;;-4.35;94.27;100978.81;4970097;28;20156;-69
2022/01/23 14:10:25;;;;;;;53.17;21.00;;;;;;;-4.31;94.34;100985.78;4994904;28;20053;-65
2022/01/23 14:12:53;;;;;;;57.00;20.70;;;;;;;-4.41;94.56;100968.34;4992216;28;20047;-66
2022/01/23 14:15:26;;;;;;;54.33;20.35;;;;;;;-4.40;94.33;100983.28;4974224;28;20050;-68
2022/01/23 14:18:00;;;;;;;45.95;18.35;;;;;;;-4.56;94.73;100987.06;4991364;28;20394;-65
2022/01/23 14:20:27;;;;;;;54.42;21.17;;;;;;;-4.56;94.83;100987.06;4970318;28;20073;-67
2022/01/23 14:22:55;;;;;;;53.60;22.10;;;;;;;-4.73;95.92;100998.72;4968110;28;20070;-66
2022/01/23 14:25:25;;;;;;;55.47;21.95;;;;;;;-4.79;95.69;100998.81;4966473;28;20046;-66
2022/01/23 14:28:11;;;;;;;56.22;21.77;;;;;;;-4.83;96.38;101002.38;5007448;28;20041;-67
2022/01/23 14:30:48;;;;;;;53.40;21.27;;;;;;;-4.91;96.11;101005.13;5000215;28;20129;-67
2022/01/23 14:33:21;;;;;;;57.92;20.48;;;;;;;-5.05;96.85;101000.91;4987636;28;20053;-66
2022/01/23 14:35:48;;;;;;;54.80;19.42;;;;;;;-5.12;96.59;101005.38;4974560;28;20046;-65
2022/01/23 14:38:20;;;;;;;60.38;21.30;;;;;;;-5.22;96.96;101009.91;5011317;28;20052;-65
2022/01/23 14:41:07;;;;;;;54.05;20.63;;;;;;;-5.36;97.81;101007.44;5008045;28;20054;-65
2022/01/23 14:43:33;;;;;;;51.28;19.10;;;;;;;-5.38;98.19;101032.06;4994012;28;20052;-65
2022/01/23 14:46:03;;;;;;;49.25;21.83;;;;;;;-5.47;98.87;101042.72;5010281;28;20049;-65
2022/01/23 14:48:29;;;;;;;50.63;19.73;;;;;;;-5.55;99.48;101034.03;4995686;28;20041;-64
2022/01/23 14:50:56;;;;;;;47.00;19.50;;;;;;;-5.60;99.76;101045.44;5000843;28;20053;-69
2022/01/23 14:53:24;;;;;;;53.00;21.70;;;;;;;-5.58;99.69;101061.25;4999855;28;20092;-66
2022/01/23 14:55:59;;;;;;;48.17;18.73;;;;;;;-5.61;100.00;101075.31;4999155;28;20049;-65
2022/01/23 14:58:28;;;;;;;53.20;20.92;;;;;;;-5.59;99.19;101084.09;5003398;28;20068;-65